map of GLA home
GLA - Airport
Location
City:  Glasgow, Renfrewshire, Scotland, United Kingdom
Name:Abbotsinch
ICAO:EGPF
IATA:GLA

Details
Type:Airport (Aerodrome, Airfield)
Use:Public/Civil, International (customs port of entry)
Latitude:5552'19"N (55.871944)
Longitude:425'59"W (-4.433055)
Elevation:26 ft (8 m)
Variation:2.74W (WMM2015 magnetic declination)
0.17 annual change
Runways:1
Longest:8743 × 151 ft (2665 × 46 m), paved

Time
Time Zone:UTC+0 (DST+1)
Local Time:

Weather
METAR:EGPF 241620Z AUTO 24005KT 9999 -RA FEW013/// SCT028/// BKN039/// //////TCU 02/M00 Q1007
TAF:EGPF 241100Z 2412/2512 24005KT 9999 SCT030
TEMPO 2412/2423 6000 SHRA BKN009 PROB30
TEMPO 2412/2418 2000 SHRASN BKN004

Related Locations
Nearby:
Farthest:SZS: 11733 mi / 18883 km
Ryan's Creek, Stewart Island, STL, NZ

Find:

   beyond  
but within

Other Information
Maps:
NOTAMs:
Links:
Sources:

  
flag of United Kingdom
flag of Scotland
  

Airport Diagram

Airport diagram for GLA

Airport diagram PDF

Sectional Chart

Flight Planning
at skyvector.com

Satellite Image

Google Maps Satellite view

 

Copyright © 2004-2017 Karl L. Swartz. All rights reserved.
The Great Circle Mapper name and logo are trademarks of the Great Circle Mapper.
All other trademarks mentioned herein belong to their respective owners.
Please see credits for attibutions and further copyright information.

  Follow gcmap on Facebook Follow gcmap on Twitter Follow gcmap on Google+ GCmap on LinkedIn

hCard Microformat

Geo Microformat